Boca Raton, FL (33427)

7:18 AM EST on December 25, 2014 (GMT -0500)
Boca Surf Cam . Com | Change Station
CLOSE
Current Station
Personal Weather Station
Location: Boca Raton, FL
Elevation: 26 ft
Nearby Weather Stations

Elev 26 ft 26.35 °N, 80.07 °W | Updated 14 minutes ago

Overcast
Overcast
67.5 °F
Feels Like 67.5 °F
N
1.7
Wind Variable Wind from West

Today
High -- | Low -- °F
--% Chance of Precip.
Yesterday
High -- | Low -- °F
Precip. -- in
7:05 AM 5:35 PM
Waxing Crescent, 16% visible
Pressure 30.08 in
Visibility 8.0 miles
Clouds Mostly Cloudy 3300 ft
Overcast 4000 ft
Dew Point 64 °F
Humidity 88%
Rainfall 0.12 in
Snow Depth Not available.
UV 0 out of 12
Pollen 3.90 out of 12
Air Quality Not available.
Flu Activity Not available.
SPECI KPMP 251114Z AUTO 00000KT 8SM -RA BKN033 OVC040 19/18 A3008 RMK AO2 P0000 T01940183

More Conditions Fewer Conditions

Pressure 30.08 in
Visibility 8.0 miles
Clouds Mostly Cloudy 3300 ft
Overcast 4000 ft
Dew Point 64 °F
Humidity 88%
Rainfall 0.12 in
Snow Depth Not available.
UV 0 out of 12
Pollen 3.90 out of 12
Air Quality Not available.
Flu Activity Not available.
SPECI KPMP 251114Z AUTO 00000KT 8SM -RA BKN033 OVC040 19/18 A3008 RMK AO2 P0000 T01940183

More Conditions Fewer Conditions

Nowcast | as of 4:53 am EST on December 25, 2014

Light rain or sprinkles will continue to impact the East Coast Metro and coastal locations through daybreak. Occasional periods of moderate to heavy rain will remain possible, especially over portions of Miami-Dade and the adjacent Atlantic waters. The main impacts will be wet roadways and reduced visibilities in and around any of the heavier showers. Additional rainfall accumulations will remain minimal.

×

10-Day Weather Forecast

Almanac

Astronomy

Dec. 25, 2014 Rise Set
Actual Time
Civil Twilight
Nautical Twilight
Astronomical Twilight
Moon
Length of Visible Light
Length of Day
Tomorrow will be .
, % of the Moon is Illuminated

Today's Extremes

State Highs State Lows

Community

WunderPhotos

Upload Photos

1,780,264 photos uploaded!

WunderBlogs® & News

Nearby

Air Quality

  Air Quality AQ Index Pollutant
Not available.

Snow Depth

Station Depth Elevation

Earthquake Activity

City Distance Mag. Time & Date
Minimum magnitude displayed is 2.5.

Coastal Water Temperatures

Place Temperature

Nearby Weather Stations